sensor_id;sensor_type;location;lat;lon;timestamp;P1;durP1;ratioP1;P2;durP2;ratioP2
45408;SDS011;31162;51.076;3.784;2023-04-04T00:01:38;3.05;;;2.00;;
45408;SDS011;31162;51.076;3.784;2023-04-04T00:04:03;4.32;;;2.47;;
45408;SDS011;31162;51.076;3.784;2023-04-04T00:06:29;5.32;;;2.10;;
45408;SDS011;31162;51.076;3.784;2023-04-04T00:08:55;5.55;;;2.78;;
45408;SDS011;31162;51.076;3.784;2023-04-04T00:11:21;3.92;;;2.47;;
45408;SDS011;31162;51.076;3.784;2023-04-04T00:13:47;4.18;;;2.03;;
45408;SDS011;31162;51.076;3.784;2023-04-04T00:16:12;7.20;;;2.42;;
45408;SDS011;31162;51.076;3.784;2023-04-04T00:18:38;4.72;;;2.25;;
45408;SDS011;31162;51.076;3.784;2023-04-04T00:21:04;3.53;;;2.10;;
45408;SDS011;31162;51.076;3.784;2023-04-04T00:23:30;4.40;;;2.15;;
45408;SDS011;31162;51.076;3.784;2023-04-04T00:25:55;3.85;;;2.15;;
45408;SDS011;31162;51.076;3.784;2023-04-04T00:28:21;3.28;;;2.42;;
45408;SDS011;31162;51.076;3.784;2023-04-04T00:30:47;4.22;;;2.50;;
45408;SDS011;31162;51.076;3.784;2023-04-04T00:33:13;3.10;;;2.08;;
45408;SDS011;31162;51.076;3.784;2023-04-04T00:35:39;5.60;;;2.17;;
45408;SDS011;31162;51.076;3.784;2023-04-04T00:38:05;4.88;;;2.20;;
45408;SDS011;31162;51.076;3.784;2023-04-04T00:40:32;4.93;;;2.30;;
45408;SDS011;31162;51.076;3.784;2023-04-04T00:43:11;4.13;;;2.30;;
45408;SDS011;31162;51.076;3.784;2023-04-04T00:45:38;3.78;;;2.40;;
45408;SDS011;31162;51.076;3.784;2023-04-04T00:48:04;4.78;;;2.53;;
45408;SDS011;31162;51.076;3.784;2023-04-04T00:50:31;4.90;;;2.58;;
45408;SDS011;31162;51.076;3.784;2023-04-04T00:52:57;4.70;;;2.30;;
45408;SDS011;31162;51.076;3.784;2023-04-04T00:55:23;5.00;;;2.40;;
45408;SDS011;31162;51.076;3.784;2023-04-04T00:57:49;4.47;;;2.63;;
45408;SDS011;31162;51.076;3.784;2023-04-04T01:00:15;3.92;;;2.47;;
45408;SDS011;31162;51.076;3.784;2023-04-04T01:02:41;4.40;;;2.72;;
45408;SDS011;31162;51.076;3.784;2023-04-04T01:05:07;4.50;;;2.30;;
45408;SDS011;31162;51.076;3.784;2023-04-04T01:07:34;5.78;;;2.20;;
45408;SDS011;31162;51.076;3.784;2023-04-04T01:10:00;5.43;;;2.50;;
45408;SDS011;31162;51.076;3.784;2023-04-04T01:12:28;4.90;;;2.33;;
45408;SDS011;31162;51.076;3.784;2023-04-04T01:14:54;5.32;;;2.85;;
45408;SDS011;31162;51.076;3.784;2023-04-04T01:17:20;6.13;;;2.50;;
45408;SDS011;31162;51.076;3.784;2023-04-04T01:19:55;4.75;;;2.20;;
45408;SDS011;31162;51.076;3.784;2023-04-04T01:22:23;7.22;;;2.30;;
45408;SDS011;31162;51.076;3.784;2023-04-04T01:24:51;5.63;;;2.60;;
45408;SDS011;31162;51.076;3.784;2023-04-04T01:27:19;3.13;;;2.33;;
45408;SDS011;31162;51.076;3.784;2023-04-04T01:29:45;4.07;;;2.50;;
45408;SDS011;31162;51.076;3.784;2023-04-04T01:32:11;3.63;;;2.45;;
45408;SDS011;31162;51.076;3.784;2023-04-04T01:39:55;3.88;;;2.63;;
45408;SDS011;31162;51.076;3.784;2023-04-04T01:42:29;3.95;;;2.60;;
45408;SDS011;31162;51.076;3.784;2023-04-04T01:44:56;4.57;;;2.60;;
45408;SDS011;31162;51.076;3.784;2023-04-04T01:47:22;4.90;;;2.35;;
45408;SDS011;31162;51.076;3.784;2023-04-04T01:49:48;4.55;;;2.60;;
45408;SDS011;31162;51.076;3.784;2023-04-04T01:52:14;3.97;;;2.42;;
45408;SDS011;31162;51.076;3.784;2023-04-04T01:54:40;5.07;;;2.90;;
45408;SDS011;31162;51.076;3.784;2023-04-04T01:57:06;4.03;;;2.53;;
45408;SDS011;31162;51.076;3.784;2023-04-04T01:59:32;4.65;;;2.38;;
45408;SDS011;31162;51.076;3.784;2023-04-04T02:01:58;3.63;;;2.00;;
45408;SDS011;31162;51.076;3.784;2023-04-04T02:04:23;3.95;;;2.40;;
45408;SDS011;31162;51.076;3.784;2023-04-04T02:06:49;5.78;;;2.78;;
45408;SDS011;31162;51.076;3.784;2023-04-04T02:09:16;4.32;;;2.88;;
45408;SDS011;31162;51.076;3.784;2023-04-04T02:11:42;5.18;;;2.60;;
45408;SDS011;31162;51.076;3.784;2023-04-04T02:14:08;6.85;;;2.88;;
45408;SDS011;31162;51.076;3.784;2023-04-04T02:16:33;4.68;;;2.47;;
45408;SDS011;31162;51.076;3.784;2023-04-04T02:18:59;5.50;;;2.80;;
45408;SDS011;31162;51.076;3.784;2023-04-04T02:21:25;4.13;;;2.80;;
45408;SDS011;31162;51.076;3.784;2023-04-04T02:23:51;5.15;;;2.63;;
45408;SDS011;31162;51.076;3.784;2023-04-04T02:26:17;4.50;;;2.70;;
45408;SDS011;31162;51.076;3.784;2023-04-04T02:28:43;5.68;;;3.05;;
45408;SDS011;31162;51.076;3.784;2023-04-04T02:31:09;3.60;;;2.35;;
45408;SDS011;31162;51.076;3.784;2023-04-04T02:33:34;4.55;;;2.83;;
45408;SDS011;31162;51.076;3.784;2023-04-04T02:36:00;4.20;;;2.70;;
45408;SDS011;31162;51.076;3.784;2023-04-04T02:38:26;5.53;;;3.05;;
45408;SDS011;31162;51.076;3.784;2023-04-04T02:40:52;4.70;;;2.83;;
45408;SDS011;31162;51.076;3.784;2023-04-04T02:43:18;4.30;;;2.70;;
45408;SDS011;31162;51.076;3.784;2023-04-04T02:45:46;4.43;;;2.90;;
45408;SDS011;31162;51.076;3.784;2023-04-04T02:48:13;4.75;;;2.60;;
45408;SDS011;31162;51.076;3.784;2023-04-04T02:50:38;6.35;;;2.78;;
45408;SDS011;31162;51.076;3.784;2023-04-04T02:53:05;3.65;;;2.50;;
45408;SDS011;31162;51.076;3.784;2023-04-04T02:55:31;5.18;;;2.65;;
45408;SDS011;31162;51.076;3.784;2023-04-04T02:57:57;3.63;;;3.00;;
45408;SDS011;31162;51.076;3.784;2023-04-04T03:00:22;7.15;;;2.83;;
45408;SDS011;31162;51.076;3.784;2023-04-04T03:02:55;3.67;;;2.85;;
45408;SDS011;31162;51.076;3.784;2023-04-04T03:05:24;4.28;;;2.90;;
45408;SDS011;31162;51.076;3.784;2023-04-04T03:07:57;5.97;;;3.13;;
45408;SDS011;31162;51.076;3.784;2023-04-04T03:10:23;3.97;;;3.30;;
45408;SDS011;31162;51.076;3.784;2023-04-04T03:12:51;4.78;;;3.20;;
45408;SDS011;31162;51.076;3.784;2023-04-04T03:15:16;5.97;;;3.22;;
45408;SDS011;31162;51.076;3.784;2023-04-04T03:17:42;6.13;;;3.03;;
45408;SDS011;31162;51.076;3.784;2023-04-04T03:20:09;5.90;;;3.13;;
45408;SDS011;31162;51.076;3.784;2023-04-04T03:22:36;5.13;;;3.13;;
45408;SDS011;31162;51.076;3.784;2023-04-04T03:25:02;4.53;;;2.95;;
45408;SDS011;31162;51.076;3.784;2023-04-04T03:27:29;4.38;;;2.97;;
45408;SDS011;31162;51.076;3.784;2023-04-04T03:29:56;5.88;;;3.30;;
45408;SDS011;31162;51.076;3.784;2023-04-04T03:32:23;3.97;;;2.80;;
45408;SDS011;31162;51.076;3.784;2023-04-04T03:34:49;5.15;;;3.38;;
45408;SDS011;31162;51.076;3.784;2023-04-04T03:37:16;5.40;;;3.45;;
45408;SDS011;31162;51.076;3.784;2023-04-04T03:39:42;7.25;;;4.00;;
45408;SDS011;31162;51.076;3.784;2023-04-04T03:42:08;7.13;;;3.40;;
45408;SDS011;31162;51.076;3.784;2023-04-04T03:44:33;4.60;;;3.90;;
45408;SDS011;31162;51.076;3.784;2023-04-04T03:47:00;5.57;;;3.63;;
45408;SDS011;31162;51.076;3.784;2023-04-04T03:49:26;5.68;;;3.53;;
45408;SDS011;31162;51.076;3.784;2023-04-04T03:51:52;4.80;;;3.83;;
45408;SDS011;31162;51.076;3.784;2023-04-04T03:54:17;4.35;;;3.50;;
45408;SDS011;31162;51.076;3.784;2023-04-04T03:56:43;6.47;;;4.03;;
45408;SDS011;31162;51.076;3.784;2023-04-04T03:59:09;5.95;;;3.90;;
45408;SDS011;31162;51.076;3.784;2023-04-04T04:01:34;8.35;;;3.80;;
45408;SDS011;31162;51.076;3.784;2023-04-04T04:04:00;7.50;;;3.78;;
45408;SDS011;31162;51.076;3.784;2023-04-04T04:06:26;6.25;;;3.50;;
45408;SDS011;31162;51.076;3.784;2023-04-04T04:08:51;5.35;;;3.38;;
45408;SDS011;31162;51.076;3.784;2023-04-04T04:11:17;3.83;;;3.20;;
45408;SDS011;31162;51.076;3.784;2023-04-04T04:13:43;5.28;;;3.88;;
45408;SDS011;31162;51.076;3.784;2023-04-04T04:16:08;5.30;;;3.22;;
45408;SDS011;31162;51.076;3.784;2023-04-04T04:18:34;4.88;;;3.70;;
45408;SDS011;31162;51.076;3.784;2023-04-04T04:21:00;6.15;;;3.90;;
45408;SDS011;31162;51.076;3.784;2023-04-04T04:23:28;5.78;;;4.03;;
45408;SDS011;31162;51.076;3.784;2023-04-04T04:25:54;4.47;;;3.70;;
45408;SDS011;31162;51.076;3.784;2023-04-04T04:28:20;6.32;;;4.18;;
45408;SDS011;31162;51.076;3.784;2023-04-04T04:30:47;6.40;;;3.60;;
45408;SDS011;31162;51.076;3.784;2023-04-04T04:33:13;5.32;;;3.40;;
45408;SDS011;31162;51.076;3.784;2023-04-04T04:35:39;8.20;;;4.10;;
45408;SDS011;31162;51.076;3.784;2023-04-04T04:38:05;7.88;;;4.35;;
45408;SDS011;31162;51.076;3.784;2023-04-04T04:40:31;7.85;;;4.50;;
45408;SDS011;31162;51.076;3.784;2023-04-04T04:42:57;12.10;;;4.55;;
45408;SDS011;31162;51.076;3.784;2023-04-04T04:45:23;11.48;;;4.65;;
45408;SDS011;31162;51.076;3.784;2023-04-04T04:47:49;7.15;;;4.57;;
45408;SDS011;31162;51.076;3.784;2023-04-04T04:50:15;8.43;;;4.60;;
45408;SDS011;31162;51.076;3.784;2023-04-04T04:52:41;5.50;;;4.57;;
45408;SDS011;31162;51.076;3.784;2023-04-04T04:55:07;6.57;;;3.90;;
45408;SDS011;31162;51.076;3.784;2023-04-04T04:57:33;10.80;;;4.45;;
45408;SDS011;31162;51.076;3.784;2023-04-04T04:59:59;5.75;;;4.38;;
45408;SDS011;31162;51.076;3.784;2023-04-04T05:02:26;6.25;;;4.38;;
45408;SDS011;31162;51.076;3.784;2023-04-04T05:04:52;6.72;;;4.78;;
45408;SDS011;31162;51.076;3.784;2023-04-04T05:07:18;7.97;;;4.78;;
45408;SDS011;31162;51.076;3.784;2023-04-04T05:09:43;6.93;;;4.72;;
45408;SDS011;31162;51.076;3.784;2023-04-04T05:12:09;7.90;;;4.80;;
45408;SDS011;31162;51.076;3.784;2023-04-04T05:14:34;8.65;;;5.20;;
45408;SDS011;31162;51.076;3.784;2023-04-04T05:17:00;9.70;;;4.88;;
45408;SDS011;31162;51.076;3.784;2023-04-04T05:19:26;7.85;;;4.68;;
45408;SDS011;31162;51.076;3.784;2023-04-04T05:21:52;8.38;;;4.80;;
45408;SDS011;31162;51.076;3.784;2023-04-04T05:24:18;6.40;;;4.60;;
45408;SDS011;31162;51.076;3.784;2023-04-04T05:26:44;6.72;;;4.82;;
45408;SDS011;31162;51.076;3.784;2023-04-04T05:29:11;9.35;;;4.60;;
45408;SDS011;31162;51.076;3.784;2023-04-04T05:31:36;7.13;;;4.45;;
45408;SDS011;31162;51.076;3.784;2023-04-04T05:34:02;12.13;;;4.80;;
45408;SDS011;31162;51.076;3.784;2023-04-04T05:36:35;7.43;;;5.45;;
45408;SDS011;31162;51.076;3.784;2023-04-04T05:39:01;9.13;;;5.10;;
45408;SDS011;31162;51.076;3.784;2023-04-04T05:41:30;7.65;;;4.45;;
45408;SDS011;31162;51.076;3.784;2023-04-04T05:43:57;7.78;;;4.88;;
45408;SDS011;31162;51.076;3.784;2023-04-04T05:46:23;12.02;;;6.47;;
45408;SDS011;31162;51.076;3.784;2023-04-04T05:48:48;11.57;;;6.65;;
45408;SDS011;31162;51.076;3.784;2023-04-04T05:51:15;10.75;;;6.82;;
45408;SDS011;31162;51.076;3.784;2023-04-04T05:53:41;8.85;;;5.10;;
45408;SDS011;31162;51.076;3.784;2023-04-04T05:56:09;6.72;;;5.18;;
45408;SDS011;31162;51.076;3.784;2023-04-04T05:58:35;8.23;;;4.78;;
45408;SDS011;31162;51.076;3.784;2023-04-04T06:01:05;9.25;;;4.50;;
45408;SDS011;31162;51.076;3.784;2023-04-04T06:03:32;13.85;;;8.02;;
45408;SDS011;31162;51.076;3.784;2023-04-04T06:05:58;7.03;;;4.70;;
45408;SDS011;31162;51.076;3.784;2023-04-04T06:08:25;6.30;;;4.25;;
45408;SDS011;31162;51.076;3.784;2023-04-04T06:10:51;6.22;;;4.00;;
45408;SDS011;31162;51.076;3.784;2023-04-04T06:13:17;8.55;;;3.75;;
45408;SDS011;31162;51.076;3.784;2023-04-04T06:15:42;10.00;;;4.20;;
45408;SDS011;31162;51.076;3.784;2023-04-04T06:18:08;5.72;;;3.85;;
45408;SDS011;31162;51.076;3.784;2023-04-04T06:20:34;6.07;;;3.83;;
45408;SDS011;31162;51.076;3.784;2023-04-04T06:23:00;6.43;;;3.25;;
45408;SDS011;31162;51.076;3.784;2023-04-04T06:25:28;8.40;;;4.05;;
45408;SDS011;31162;51.076;3.784;2023-04-04T06:27:55;7.97;;;3.45;;
45408;SDS011;31162;51.076;3.784;2023-04-04T06:30:21;7.18;;;3.25;;
45408;SDS011;31162;51.076;3.784;2023-04-04T06:32:46;4.65;;;3.50;;
45408;SDS011;31162;51.076;3.784;2023-04-04T06:35:12;6.15;;;3.63;;
45408;SDS011;31162;51.076;3.784;2023-04-04T06:37:38;7.38;;;3.58;;
45408;SDS011;31162;51.076;3.784;2023-04-04T06:40:03;4.78;;;3.47;;
45408;SDS011;31162;51.076;3.784;2023-04-04T06:42:30;7.18;;;4.00;;
45408;SDS011;31162;51.076;3.784;2023-04-04T06:44:56;4.85;;;3.50;;
45408;SDS011;31162;51.076;3.784;2023-04-04T06:47:21;8.30;;;3.55;;
45408;SDS011;31162;51.076;3.784;2023-04-04T06:49:47;7.65;;;3.80;;
45408;SDS011;31162;51.076;3.784;2023-04-04T06:52:13;7.38;;;3.80;;
45408;SDS011;31162;51.076;3.784;2023-04-04T06:54:39;5.90;;;3.53;;
45408;SDS011;31162;51.076;3.784;2023-04-04T06:57:05;6.90;;;3.60;;
45408;SDS011;31162;51.076;3.784;2023-04-04T06:59:30;4.55;;;3.50;;
45408;SDS011;31162;51.076;3.784;2023-04-04T07:01:56;4.00;;;3.45;;
45408;SDS011;31162;51.076;3.784;2023-04-04T07:04:22;8.43;;;4.43;;
45408;SDS011;31162;51.076;3.784;2023-04-04T07:06:47;9.13;;;3.72;;
45408;SDS011;31162;51.076;3.784;2023-04-04T07:09:13;7.00;;;3.83;;
45408;SDS011;31162;51.076;3.784;2023-04-04T07:11:39;6.13;;;4.53;;
45408;SDS011;31162;51.076;3.784;2023-04-04T07:14:05;5.13;;;3.70;;
45408;SDS011;31162;51.076;3.784;2023-04-04T07:16:30;5.65;;;3.50;;
45408;SDS011;31162;51.076;3.784;2023-04-04T07:18:57;4.22;;;3.20;;
45408;SDS011;31162;51.076;3.784;2023-04-04T07:21:23;7.78;;;3.50;;
45408;SDS011;31162;51.076;3.784;2023-04-04T07:23:49;5.22;;;3.58;;
45408;SDS011;31162;51.076;3.784;2023-04-04T07:26:15;4.20;;;3.15;;
45408;SDS011;31162;51.076;3.784;2023-04-04T07:28:40;5.22;;;3.33;;
45408;SDS011;31162;51.076;3.784;2023-04-04T07:31:06;3.65;;;3.30;;
45408;SDS011;31162;51.076;3.784;2023-04-04T07:33:32;5.22;;;3.50;;
45408;SDS011;31162;51.076;3.784;2023-04-04T07:35:59;6.20;;;3.55;;
45408;SDS011;31162;51.076;3.784;2023-04-04T07:38:26;4.38;;;3.10;;
45408;SDS011;31162;51.076;3.784;2023-04-04T07:40:52;4.28;;;3.05;;
45408;SDS011;31162;51.076;3.784;2023-04-04T07:43:17;4.93;;;3.53;;
45408;SDS011;31162;51.076;3.784;2023-04-04T07:45:43;5.07;;;3.13;;
45408;SDS011;31162;51.076;3.784;2023-04-04T07:48:08;5.10;;;3.33;;
45408;SDS011;31162;51.076;3.784;2023-04-04T07:50:34;7.65;;;3.22;;
45408;SDS011;31162;51.076;3.784;2023-04-04T07:53:00;5.72;;;3.30;;
45408;SDS011;31162;51.076;3.784;2023-04-04T07:55:26;4.10;;;3.22;;
45408;SDS011;31162;51.076;3.784;2023-04-04T07:57:52;5.95;;;3.15;;
45408;SDS011;31162;51.076;3.784;2023-04-04T08:00:18;3.85;;;2.58;;
45408;SDS011;31162;51.076;3.784;2023-04-04T08:02:53;3.75;;;2.88;;
45408;SDS011;31162;51.076;3.784;2023-04-04T08:05:20;5.80;;;2.80;;
45408;SDS011;31162;51.076;3.784;2023-04-04T08:07:46;3.10;;;2.33;;
45408;SDS011;31162;51.076;3.784;2023-04-04T08:10:12;4.00;;;2.83;;
45408;SDS011;31162;51.076;3.784;2023-04-04T08:12:41;4.07;;;2.83;;
45408;SDS011;31162;51.076;3.784;2023-04-04T08:15:07;5.28;;;2.65;;
45408;SDS011;31162;51.076;3.784;2023-04-04T08:17:35;6.53;;;2.75;;
45408;SDS011;31162;51.076;3.784;2023-04-04T08:20:00;4.78;;;2.85;;
45408;SDS011;31162;51.076;3.784;2023-04-04T08:22:27;3.90;;;2.70;;
45408;SDS011;31162;51.076;3.784;2023-04-04T08:24:53;6.45;;;2.80;;
45408;SDS011;31162;51.076;3.784;2023-04-04T08:27:19;5.30;;;2.45;;
45408;SDS011;31162;51.076;3.784;2023-04-04T08:29:45;2.83;;;2.42;;
45408;SDS011;31162;51.076;3.784;2023-04-04T08:32:12;3.45;;;2.47;;
45408;SDS011;31162;51.076;3.784;2023-04-04T08:34:40;4.10;;;2.08;;
45408;SDS011;31162;51.076;3.784;2023-04-04T08:37:07;3.80;;;2.47;;
45408;SDS011;31162;51.076;3.784;2023-04-04T08:39:33;2.60;;;2.10;;
45408;SDS011;31162;51.076;3.784;2023-04-04T08:42:02;3.58;;;2.22;;
45408;SDS011;31162;51.076;3.784;2023-04-04T08:44:31;2.95;;;1.95;;
45408;SDS011;31162;51.076;3.784;2023-04-04T08:46:58;5.82;;;2.03;;
45408;SDS011;31162;51.076;3.784;2023-04-04T08:49:26;5.85;;;2.28;;
45408;SDS011;31162;51.076;3.784;2023-04-04T08:51:54;2.97;;;1.95;;
45408;SDS011;31162;51.076;3.784;2023-04-04T08:54:21;3.70;;;1.92;;
45408;SDS011;31162;51.076;3.784;2023-04-04T08:56:49;3.50;;;1.95;;
45408;SDS011;31162;51.076;3.784;2023-04-04T08:59:15;3.08;;;2.17;;
45408;SDS011;31162;51.076;3.784;2023-04-04T09:01:42;4.25;;;2.17;;
45408;SDS011;31162;51.076;3.784;2023-04-04T09:04:09;3.42;;;1.80;;
45408;SDS011;31162;51.076;3.784;2023-04-04T09:06:35;3.72;;;2.00;;
45408;SDS011;31162;51.076;3.784;2023-04-04T09:09:01;2.90;;;1.95;;
45408;SDS011;31162;51.076;3.784;2023-04-04T09:11:28;5.03;;;2.20;;
45408;SDS011;31162;51.076;3.784;2023-04-04T09:13:55;3.17;;;2.13;;
45408;SDS011;31162;51.076;3.784;2023-04-04T09:16:22;4.50;;;2.10;;
45408;SDS011;31162;51.076;3.784;2023-04-04T09:18:48;3.92;;;2.05;;
45408;SDS011;31162;51.076;3.784;2023-04-04T09:21:14;2.95;;;2.15;;
45408;SDS011;31162;51.076;3.784;2023-04-04T09:23:40;4.03;;;2.08;;
45408;SDS011;31162;51.076;3.784;2023-04-04T09:26:07;4.35;;;2.70;;
45408;SDS011;31162;51.076;3.784;2023-04-04T09:28:33;6.00;;;2.60;;
45408;SDS011;31162;51.076;3.784;2023-04-04T09:31:00;4.97;;;2.28;;
45408;SDS011;31162;51.076;3.784;2023-04-04T09:33:29;3.47;;;2.20;;
45408;SDS011;31162;51.076;3.784;2023-04-04T09:35:57;4.57;;;2.30;;
45408;SDS011;31162;51.076;3.784;2023-04-04T09:38:29;3.58;;;2.30;;
45408;SDS011;31162;51.076;3.784;2023-04-04T09:40:55;5.90;;;2.50;;
45408;SDS011;31162;51.076;3.784;2023-04-04T09:43:24;2.72;;;2.10;;
45408;SDS011;31162;51.076;3.784;2023-04-04T09:45:50;3.15;;;2.00;;
45408;SDS011;31162;51.076;3.784;2023-04-04T09:48:31;3.65;;;1.90;;
45408;SDS011;31162;51.076;3.784;2023-04-04T09:50:58;3.60;;;2.17;;
45408;SDS011;31162;51.076;3.784;2023-04-04T09:53:25;3.70;;;2.20;;
45408;SDS011;31162;51.076;3.784;2023-04-04T09:55:55;2.83;;;2.00;;
45408;SDS011;31162;51.076;3.784;2023-04-04T09:58:25;4.13;;;2.30;;
45408;SDS011;31162;51.076;3.784;2023-04-04T10:00:59;3.75;;;2.33;;
45408;SDS011;31162;51.076;3.784;2023-04-04T10:03:26;3.40;;;2.17;;
45408;SDS011;31162;51.076;3.784;2023-04-04T10:05:59;4.22;;;2.25;;
45408;SDS011;31162;51.076;3.784;2023-04-04T10:08:28;2.88;;;1.92;;
45408;SDS011;31162;51.076;3.784;2023-04-04T10:10:58;2.75;;;2.20;;
45408;SDS011;31162;51.076;3.784;2023-04-04T10:13:32;3.90;;;1.92;;
45408;SDS011;31162;51.076;3.784;2023-04-04T10:18:28;4.75;;;2.40;;
45408;SDS011;31162;51.076;3.784;2023-04-04T10:20:55;5.13;;;2.35;;
45408;SDS011;31162;51.076;3.784;2023-04-04T10:23:24;6.70;;;2.53;;
45408;SDS011;31162;51.076;3.784;2023-04-04T10:25:52;5.22;;;2.30;;
45408;SDS011;31162;51.076;3.784;2023-04-04T10:28:22;4.88;;;2.50;;
45408;SDS011;31162;51.076;3.784;2023-04-04T10:33:47;3.42;;;2.25;;
45408;SDS011;31162;51.076;3.784;2023-04-04T10:36:44;4.45;;;2.30;;
45408;SDS011;31162;51.076;3.784;2023-04-04T10:39:35;4.75;;;2.25;;
45408;SDS011;31162;51.076;3.784;2023-04-04T10:42:02;4.32;;;2.35;;
45408;SDS011;31162;51.076;3.784;2023-04-04T10:44:36;4.40;;;2.10;;
45408;SDS011;31162;51.076;3.784;2023-04-04T10:49:42;6.05;;;2.35;;
45408;SDS011;31162;51.076;3.784;2023-04-04T10:52:10;3.35;;;2.20;;
45408;SDS011;31162;51.076;3.784;2023-04-04T10:54:39;4.97;;;2.40;;
45408;SDS011;31162;51.076;3.784;2023-04-04T10:57:06;3.10;;;2.53;;
45408;SDS011;31162;51.076;3.784;2023-04-04T10:59:32;2.92;;;2.40;;
45408;SDS011;31162;51.076;3.784;2023-04-04T11:01:58;3.80;;;2.78;;
45408;SDS011;31162;51.076;3.784;2023-04-04T11:04:31;2.95;;;2.08;;
45408;SDS011;31162;51.076;3.784;2023-04-04T11:07:17;3.22;;;2.40;;
45408;SDS011;31162;51.076;3.784;2023-04-04T11:12:28;4.43;;;2.30;;
45408;SDS011;31162;51.076;3.784;2023-04-04T11:20:10;2.53;;;1.88;;
45408;SDS011;31162;51.076;3.784;2023-04-04T11:22:40;4.97;;;2.80;;
45408;SDS011;31162;51.076;3.784;2023-04-04T11:27:55;4.60;;;2.60;;
45408;SDS011;31162;51.076;3.784;2023-04-04T11:30:24;4.55;;;3.05;;
45408;SDS011;31162;51.076;3.784;2023-04-04T11:32:52;4.57;;;2.53;;
45408;SDS011;31162;51.076;3.784;2023-04-04T11:35:23;4.78;;;2.80;;
45408;SDS011;31162;51.076;3.784;2023-04-04T11:40:15;6.38;;;2.97;;
45408;SDS011;31162;51.076;3.784;2023-04-04T11:42:41;6.32;;;3.28;;
45408;SDS011;31162;51.076;3.784;2023-04-04T11:45:08;4.30;;;2.47;;
45408;SDS011;31162;51.076;3.784;2023-04-04T11:47:34;3.45;;;2.10;;
45408;SDS011;31162;51.076;3.784;2023-04-04T11:50:01;4.15;;;2.80;;
45408;SDS011;31162;51.076;3.784;2023-04-04T11:52:33;3.13;;;2.50;;
45408;SDS011;31162;51.076;3.784;2023-04-04T11:54:59;5.03;;;3.10;;
45408;SDS011;31162;51.076;3.784;2023-04-04T11:57:25;3.95;;;2.78;;
45408;SDS011;31162;51.076;3.784;2023-04-04T11:59:51;5.50;;;2.88;;
45408;SDS011;31162;51.076;3.784;2023-04-04T12:02:22;4.63;;;2.72;;
45408;SDS011;31162;51.076;3.784;2023-04-04T12:04:55;6.05;;;3.35;;
45408;SDS011;31162;51.076;3.784;2023-04-04T12:07:22;5.57;;;3.20;;
45408;SDS011;31162;51.076;3.784;2023-04-04T12:09:51;4.10;;;2.97;;
45408;SDS011;31162;51.076;3.784;2023-04-04T12:12:17;6.30;;;3.00;;
45408;SDS011;31162;51.076;3.784;2023-04-04T12:14:42;4.45;;;3.00;;
45408;SDS011;31162;51.076;3.784;2023-04-04T12:17:08;5.75;;;3.20;;
45408;SDS011;31162;51.076;3.784;2023-04-04T12:19:38;4.68;;;3.30;;
45408;SDS011;31162;51.076;3.784;2023-04-04T12:22:05;4.97;;;3.00;;
45408;SDS011;31162;51.076;3.784;2023-04-04T12:24:32;4.50;;;3.15;;
45408;SDS011;31162;51.076;3.784;2023-04-04T12:26:58;4.63;;;2.97;;
45408;SDS011;31162;51.076;3.784;2023-04-04T12:29:24;7.80;;;3.63;;
45408;SDS011;31162;51.076;3.784;2023-04-04T12:31:52;7.03;;;2.85;;
45408;SDS011;31162;51.076;3.784;2023-04-04T12:34:22;3.88;;;2.90;;
45408;SDS011;31162;51.076;3.784;2023-04-04T12:36:53;6.32;;;3.55;;
45408;SDS011;31162;51.076;3.784;2023-04-04T12:39:27;4.10;;;3.40;;
45408;SDS011;31162;51.076;3.784;2023-04-04T12:41:57;6.15;;;3.40;;
45408;SDS011;31162;51.076;3.784;2023-04-04T12:44:41;4.50;;;3.08;;
45408;SDS011;31162;51.076;3.784;2023-04-04T12:47:08;5.10;;;3.22;;
45408;SDS011;31162;51.076;3.784;2023-04-04T12:49:42;3.75;;;3.20;;
45408;SDS011;31162;51.076;3.784;2023-04-04T12:52:18;4.57;;;3.30;;
45408;SDS011;31162;51.076;3.784;2023-04-04T12:54:57;5.85;;;3.33;;
45408;SDS011;31162;51.076;3.784;2023-04-04T12:57:25;3.95;;;3.10;;
45408;SDS011;31162;51.076;3.784;2023-04-04T12:59:53;4.65;;;2.95;;
45408;SDS011;31162;51.076;3.784;2023-04-04T13:02:21;8.80;;;3.60;;
45408;SDS011;31162;51.076;3.784;2023-04-04T13:04:51;5.00;;;3.05;;
45408;SDS011;31162;51.076;3.784;2023-04-04T13:07:26;6.25;;;3.30;;
45408;SDS011;31162;51.076;3.784;2023-04-04T13:09:53;23.02;;;5.20;;
45408;SDS011;31162;51.076;3.784;2023-04-04T13:12:23;3.67;;;2.97;;
45408;SDS011;31162;51.076;3.784;2023-04-04T13:14:59;3.97;;;2.90;;
45408;SDS011;31162;51.076;3.784;2023-04-04T13:17:48;3.45;;;3.15;;
45408;SDS011;31162;51.076;3.784;2023-04-04T13:20:14;5.85;;;3.40;;
45408;SDS011;31162;51.076;3.784;2023-04-04T13:22:43;3.63;;;3.00;;
45408;SDS011;31162;51.076;3.784;2023-04-04T13:25:09;11.00;;;3.78;;
45408;SDS011;31162;51.076;3.784;2023-04-04T13:27:35;4.88;;;3.22;;
45408;SDS011;31162;51.076;3.784;2023-04-04T13:30:02;4.15;;;3.25;;
45408;SDS011;31162;51.076;3.784;2023-04-04T13:32:31;5.68;;;3.33;;
45408;SDS011;31162;51.076;3.784;2023-04-04T13:34:57;3.30;;;3.00;;
45408;SDS011;31162;51.076;3.784;2023-04-04T13:37:22;5.10;;;3.25;;
45408;SDS011;31162;51.076;3.784;2023-04-04T13:39:49;6.00;;;3.90;;
45408;SDS011;31162;51.076;3.784;2023-04-04T13:42:15;3.70;;;2.88;;
45408;SDS011;31162;51.076;3.784;2023-04-04T13:44:41;5.18;;;3.20;;
45408;SDS011;31162;51.076;3.784;2023-04-04T13:47:06;5.30;;;2.88;;
45408;SDS011;31162;51.076;3.784;2023-04-04T13:49:32;3.33;;;2.83;;
45408;SDS011;31162;51.076;3.784;2023-04-04T13:51:58;6.00;;;3.30;;
45408;SDS011;31162;51.076;3.784;2023-04-04T13:54:23;3.45;;;3.13;;
45408;SDS011;31162;51.076;3.784;2023-04-04T13:56:49;7.53;;;3.47;;
45408;SDS011;31162;51.076;3.784;2023-04-04T13:59:15;4.45;;;3.13;;
45408;SDS011;31162;51.076;3.784;2023-04-04T14:01:41;5.50;;;3.25;;
45408;SDS011;31162;51.076;3.784;2023-04-04T14:04:07;4.22;;;3.10;;
45408;SDS011;31162;51.076;3.784;2023-04-04T14:06:32;5.53;;;3.28;;
45408;SDS011;31162;51.076;3.784;2023-04-04T14:08:58;4.10;;;3.70;;
45408;SDS011;31162;51.076;3.784;2023-04-04T14:11:24;4.60;;;3.38;;
45408;SDS011;31162;51.076;3.784;2023-04-04T14:13:54;7.00;;;3.33;;
45408;SDS011;31162;51.076;3.784;2023-04-04T14:16:21;4.88;;;3.58;;
45408;SDS011;31162;51.076;3.784;2023-04-04T14:18:47;7.18;;;3.60;;
45408;SDS011;31162;51.076;3.784;2023-04-04T14:21:13;6.88;;;3.47;;
45408;SDS011;31162;51.076;3.784;2023-04-04T14:23:39;6.18;;;3.35;;
45408;SDS011;31162;51.076;3.784;2023-04-04T14:26:05;4.32;;;3.17;;
45408;SDS011;31162;51.076;3.784;2023-04-04T14:28:31;5.07;;;3.25;;
45408;SDS011;31162;51.076;3.784;2023-04-04T14:30:57;6.95;;;3.70;;
45408;SDS011;31162;51.076;3.784;2023-04-04T14:33:23;5.70;;;3.47;;
45408;SDS011;31162;51.076;3.784;2023-04-04T14:35:49;4.82;;;3.75;;
45408;SDS011;31162;51.076;3.784;2023-04-04T14:38:15;4.45;;;3.60;;
45408;SDS011;31162;51.076;3.784;2023-04-04T14:40:40;5.35;;;4.00;;
45408;SDS011;31162;51.076;3.784;2023-04-04T14:43:06;3.78;;;3.13;;
45408;SDS011;31162;51.076;3.784;2023-04-04T14:45:33;8.32;;;3.70;;
45408;SDS011;31162;51.076;3.784;2023-04-04T14:47:59;5.28;;;3.85;;
45408;SDS011;31162;51.076;3.784;2023-04-04T14:50:25;5.70;;;3.55;;
45408;SDS011;31162;51.076;3.784;2023-04-04T14:52:51;3.95;;;3.50;;
45408;SDS011;31162;51.076;3.784;2023-04-04T14:55:19;3.95;;;3.40;;
45408;SDS011;31162;51.076;3.784;2023-04-04T14:57:46;4.60;;;3.78;;
45408;SDS011;31162;51.076;3.784;2023-04-04T15:00:13;5.65;;;3.78;;
45408;SDS011;31162;51.076;3.784;2023-04-04T15:02:40;5.68;;;3.60;;
45408;SDS011;31162;51.076;3.784;2023-04-04T15:05:05;5.50;;;3.85;;
45408;SDS011;31162;51.076;3.784;2023-04-04T15:07:32;5.57;;;3.53;;
45408;SDS011;31162;51.076;3.784;2023-04-04T15:09:58;4.05;;;3.40;;
45408;SDS011;31162;51.076;3.784;2023-04-04T15:12:24;8.35;;;3.28;;
45408;SDS011;31162;51.076;3.784;2023-04-04T15:14:50;5.38;;;3.42;;